createdAt,value
2019-05-10T00:00:32.030Z,12.00
2019-05-10T00:04:54.915Z,11.90
2019-05-10T00:08:58.994Z,11.80
2019-05-10T00:13:15.873Z,11.70
2019-05-10T00:17:23.423Z,11.80
2019-05-10T00:21:28.345Z,11.90
2019-05-10T00:25:33.447Z,11.80
2019-05-10T00:29:38.363Z,11.70
2019-05-10T00:33:44.602Z,11.70
2019-05-10T00:37:49.340Z,11.70
2019-05-10T00:41:54.354Z,11.80
2019-05-10T00:46:00.362Z,11.60
2019-05-10T00:50:05.921Z,11.50
2019-05-10T00:54:10.908Z,11.70
2019-05-10T00:58:16.061Z,11.70
2019-05-10T01:02:21.032Z,11.70
2019-05-10T01:06:26.088Z,11.60
2019-05-10T01:10:30.986Z,11.60
2019-05-10T01:14:35.990Z,11.60
2019-05-10T01:18:40.892Z,11.70
2019-05-10T01:22:45.736Z,11.70
2019-05-10T01:26:50.908Z,11.50
2019-05-10T01:30:55.924Z,11.50
2019-05-10T01:35:00.777Z,11.40
2019-05-10T01:39:06.778Z,11.50
2019-05-10T01:43:11.674Z,11.60
2019-05-10T01:47:16.911Z,11.40
2019-05-10T01:51:21.836Z,11.30
2019-05-10T01:55:26.843Z,11.40
2019-05-10T01:59:31.768Z,11.30
2019-05-10T02:03:37.048Z,11.40
2019-05-10T02:07:42.063Z,11.20
2019-05-10T02:11:46.977Z,11.20
2019-05-10T02:15:52.064Z,11.10
2019-05-10T02:19:56.993Z,11.00
2019-05-10T02:24:02.175Z,10.90
2019-05-10T02:28:07.030Z,10.70
2019-05-10T02:32:12.003Z,10.60
2019-05-10T02:36:16.914Z,10.60
2019-05-10T02:40:22.129Z,10.60
2019-05-10T02:44:27.219Z,10.60
2019-05-10T02:48:32.135Z,10.70
2019-05-10T02:52:37.040Z,10.70
2019-05-10T02:56:43.108Z,10.70
2019-05-10T03:00:50.144Z,10.80
2019-05-10T03:04:56.085Z,10.50
2019-05-10T03:09:04.759Z,10.40
2019-05-10T03:13:12.642Z,10.40
2019-05-10T03:17:19.704Z,10.40
2019-05-10T03:21:24.653Z,10.60
2019-05-10T03:25:29.694Z,10.60
2019-05-10T03:29:34.617Z,10.70
2019-05-10T03:33:39.856Z,10.50
2019-05-10T03:37:46.836Z,10.60
2019-05-10T03:41:51.755Z,10.80
2019-05-10T03:45:56.686Z,10.80
2019-05-10T03:50:01.546Z,10.80
2019-05-10T03:54:07.884Z,11.10
2019-05-10T03:58:13.854Z,11.20
2019-05-10T04:02:18.773Z,11.30
2019-05-10T04:06:24.207Z,11.20
2019-05-10T04:10:29.392Z,11.10
2019-05-10T04:14:34.512Z,11.00
2019-05-10T04:18:39.697Z,11.00
2019-05-10T04:22:44.623Z,11.00
2019-05-10T04:26:49.678Z,11.00
2019-05-10T04:30:54.576Z,10.70
2019-05-10T04:34:59.600Z,10.80
2019-05-10T04:39:06.430Z,10.80
2019-05-10T04:43:11.349Z,10.50
2019-05-10T04:47:16.645Z,10.50
2019-05-10T04:51:21.411Z,10.40
2019-05-10T04:55:26.596Z,10.60
2019-05-10T04:59:31.530Z,10.70
2019-05-10T05:03:36.604Z,10.80
2019-05-10T05:07:41.879Z,10.90
2019-05-10T05:11:46.712Z,11.00
2019-05-10T05:15:54.872Z,11.10
2019-05-10T05:19:59.857Z,11.10
2019-05-10T05:24:05.007Z,11.40
2019-05-10T05:28:09.848Z,11.40
2019-05-10T05:32:14.713Z,11.50
2019-05-10T05:36:19.613Z,11.70
2019-05-10T05:40:24.548Z,12.00
2019-05-10T05:44:29.817Z,12.00
2019-05-10T05:48:40.484Z,12.10
2019-05-10T05:52:41.580Z,12.20
2019-05-10T05:56:50.490Z,12.20
2019-05-10T06:00:53.604Z,12.40
2019-05-10T06:04:58.656Z,12.40
2019-05-10T06:09:06.392Z,12.30
2019-05-10T06:13:11.521Z,12.20
2019-05-10T06:17:16.448Z,12.30
2019-05-10T06:21:24.928Z,12.30
2019-05-10T06:25:39.278Z,12.30
2019-05-10T06:29:34.671Z,12.10
2019-05-10T06:33:44.846Z,12.10
2019-05-10T06:37:46.435Z,12.10
2019-05-10T06:41:55.957Z,12.10
2019-05-10T06:45:57.887Z,12.10
2019-05-10T06:50:02.740Z,12.00
2019-05-10T06:54:07.653Z,12.20
2019-05-10T06:58:12.572Z,12.40
2019-05-10T07:02:19.934Z,12.10
2019-05-10T07:06:24.009Z,12.30
2019-05-10T07:10:33.740Z,12.30
2019-05-10T07:14:35.473Z,12.40
2019-05-10T07:18:40.260Z,12.70
2019-05-10T07:22:45.056Z,12.50
2019-05-10T07:26:49.902Z,12.40
2019-05-10T07:30:54.908Z,12.50
2019-05-10T07:35:01.027Z,12.60
2019-05-10T07:39:08.284Z,12.30
2019-05-10T07:43:24.794Z,12.20
2019-05-10T07:47:23.821Z,12.30
2019-05-10T07:51:28.573Z,12.70
2019-05-10T07:55:33.540Z,12.90
2019-05-10T07:59:49.890Z,12.40
2019-05-10T08:03:52.176Z,12.40
2019-05-10T08:07:52.591Z,12.10
2019-05-10T08:12:03.298Z,11.90
2019-05-10T08:16:11.798Z,12.10
2019-05-10T08:20:22.161Z,12.00
2019-05-10T08:24:22.028Z,12.30
2019-05-10T08:28:27.963Z,12.70
2019-05-10T08:32:34.761Z,13.10
2019-05-10T08:36:43.360Z,13.50
2019-05-10T08:40:45.855Z,14.00
2019-05-10T08:44:53.745Z,14.30
2019-05-10T08:48:57.344Z,14.40
2019-05-10T08:53:10.594Z,14.50
2019-05-10T09:01:44.837Z,14.00
2019-05-10T09:05:43.179Z,14.00
2019-05-10T09:09:50.063Z,14.30
2019-05-10T09:13:57.513Z,14.90
2019-05-10T09:18:04.422Z,15.00
2019-05-10T09:22:07.875Z,15.00
2019-05-10T09:26:16.553Z,14.30
2019-05-10T09:30:32.452Z,14.30
2019-05-10T09:34:37.939Z,13.90
2019-05-10T09:38:45.056Z,14.30
2019-05-10T09:42:49.448Z,14.60
2019-05-10T09:46:54.612Z,14.70
2019-05-10T09:51:01.610Z,14.50
2019-05-10T09:55:12.418Z,14.60
2019-05-10T09:59:13.665Z,14.80
2019-05-10T10:03:18.581Z,14.70
2019-05-10T10:07:24.256Z,14.50
2019-05-10T10:11:30.451Z,14.20
2019-05-10T10:15:37.240Z,13.90
2019-05-10T10:19:41.860Z,13.60
2019-05-10T10:23:47.894Z,13.50
2019-05-10T10:27:52.785Z,13.80
2019-05-10T10:31:59.000Z,14.40
2019-05-10T10:36:05.482Z,14.80
2019-05-10T10:40:11.247Z,15.00
2019-05-10T10:44:18.169Z,15.20
2019-05-10T10:48:22.537Z,15.00
2019-05-10T10:52:27.815Z,15.00
2019-05-10T10:56:32.887Z,14.90
2019-05-10T11:00:38.781Z,14.80
2019-05-10T11:04:46.889Z,14.60
2019-05-10T11:08:51.855Z,14.80
2019-05-10T11:13:02.661Z,14.90
2019-05-10T11:17:03.586Z,14.90
2019-05-10T11:21:08.492Z,14.80
2019-05-10T11:25:13.430Z,14.70
2019-05-10T11:29:25.454Z,14.40
2019-05-10T11:33:29.911Z,14.60
2019-05-10T11:37:36.019Z,14.30
2019-05-10T11:41:37.636Z,14.20
2019-05-10T11:45:44.186Z,14.20
2019-05-10T11:49:50.901Z,13.90
2019-05-10T11:53:59.511Z,14.10
2019-05-10T11:58:08.116Z,14.30
2019-05-10T12:02:10.261Z,14.90
2019-05-10T12:06:14.732Z,15.50
2019-05-10T12:10:24.318Z,15.20
2019-05-10T12:14:26.236Z,15.30
2019-05-10T12:18:32.530Z,15.40
2019-05-10T12:22:38.563Z,15.40
2019-05-10T12:30:51.197Z,16.30
2019-05-10T12:34:56.757Z,16.30
2019-05-10T12:39:01.903Z,16.30
2019-05-10T12:43:07.869Z,16.10
2019-05-10T12:47:12.721Z,15.90
2019-05-10T12:51:17.664Z,16.00
2019-05-10T12:55:22.536Z,15.80
2019-05-10T12:59:29.615Z,15.80
2019-05-10T13:03:33.909Z,15.80
2019-05-10T13:07:38.902Z,15.60
2019-05-10T13:11:43.873Z,15.20
2019-05-10T13:15:48.622Z,15.40
2019-05-10T13:19:58.637Z,15.60
2019-05-10T13:24:01.012Z,16.20
2019-05-10T13:28:11.236Z,16.60
2019-05-10T13:32:14.768Z,17.50
2019-05-10T13:36:18.981Z,17.80
2019-05-10T13:40:23.801Z,18.20
2019-05-10T13:44:28.552Z,18.70
2019-05-10T13:48:33.488Z,18.80
2019-05-10T13:52:40.995Z,18.60
2019-05-10T13:56:52.018Z,19.00
2019-05-10T14:00:51.136Z,19.30
2019-05-10T14:04:55.946Z,18.40
2019-05-10T14:09:00.750Z,18.50
2019-05-10T14:13:05.819Z,18.40
2019-05-10T14:17:10.569Z,17.60
2019-05-10T14:21:15.388Z,17.50
2019-05-10T14:25:20.278Z,16.90
2019-05-10T14:29:32.903Z,16.80
2019-05-10T14:33:31.420Z,16.70
2019-05-10T14:37:36.150Z,17.20
2019-05-10T14:41:45.179Z,17.70
2019-05-10T14:45:48.588Z,17.40
2019-05-10T14:49:53.396Z,18.00
2019-05-10T14:54:06.303Z,18.50
2019-05-10T14:58:04.772Z,17.90
2019-05-10T15:02:09.588Z,17.50
2019-05-10T15:06:14.596Z,17.50
2019-05-10T15:10:19.403Z,17.70
2019-05-10T15:14:24.618Z,18.60
2019-05-10T15:18:29.412Z,19.20
2019-05-10T15:22:34.160Z,19.00
2019-05-10T15:26:43.983Z,18.70
2019-05-10T15:30:51.793Z,18.90
2019-05-10T15:35:05.201Z,20.50
2019-05-10T15:38:58.742Z,19.70
2019-05-10T15:43:03.518Z,19.00
2019-05-10T15:47:14.410Z,18.10
2019-05-10T15:51:16.810Z,17.80
2019-05-10T15:55:27.421Z,17.20
2019-05-10T15:59:29.155Z,17.10
2019-05-10T16:03:33.880Z,17.20
2019-05-10T16:07:38.766Z,16.70
2019-05-10T16:11:43.481Z,16.10
2019-05-10T16:15:51.671Z,16.50
2019-05-10T16:19:59.738Z,18.50
2019-05-10T16:24:02.214Z,20.90
2019-05-10T16:28:07.017Z,22.30
2019-05-10T16:32:11.838Z,24.40
2019-05-10T16:36:16.548Z,24.50
2019-05-10T16:40:21.450Z,23.60
2019-05-10T16:44:26.193Z,22.80
2019-05-10T16:48:33.262Z,22.70
2019-05-10T16:52:37.984Z,21.80
2019-05-10T16:56:42.810Z,21.70
2019-05-10T17:00:48.032Z,22.10
2019-05-10T17:04:53.172Z,22.40
2019-05-10T17:08:58.236Z,22.40
2019-05-10T17:13:04.907Z,22.50
2019-05-10T17:17:09.621Z,22.60
2019-05-10T17:21:14.383Z,22.80
2019-05-10T17:25:22.364Z,22.70
2019-05-10T17:29:25.624Z,22.20
2019-05-10T17:33:30.597Z,21.70
2019-05-10T17:37:36.218Z,21.00
2019-05-10T17:41:43.119Z,20.60
2019-05-10T17:45:48.108Z,20.50
2019-05-10T17:49:52.904Z,20.60
2019-05-10T17:54:01.421Z,20.20
2019-05-10T17:58:04.537Z,20.50
2019-05-10T18:02:09.596Z,20.80
2019-05-10T18:06:23.619Z,20.40
2019-05-10T18:10:21.303Z,20.40
2019-05-10T18:14:29.399Z,20.30
2019-05-10T18:18:35.353Z,20.10
2019-05-10T18:22:43.242Z,20.00
2019-05-10T18:26:46.205Z,19.50
2019-05-10T18:30:51.006Z,19.20
2019-05-10T18:34:55.885Z,19.00
2019-05-10T18:39:00.629Z,18.90
2019-05-10T18:43:05.885Z,18.60
2019-05-10T18:47:11.412Z,18.60
2019-05-10T18:51:17.885Z,18.50
2019-05-10T18:55:22.860Z,18.40
2019-05-10T18:59:27.686Z,18.40
2019-05-10T19:03:33.702Z,18.40
2019-05-10T19:07:38.891Z,18.60
2019-05-10T19:11:43.780Z,18.50
2019-05-10T19:15:52.821Z,18.60
2019-05-10T19:19:55.251Z,18.40
2019-05-10T19:24:00.204Z,18.30
2019-05-10T19:28:05.070Z,18.30
2019-05-10T19:32:11.510Z,17.90
2019-05-10T19:36:16.484Z,18.00
2019-05-10T19:40:21.604Z,17.80
2019-05-10T19:44:26.456Z,17.80
2019-05-10T19:48:35.475Z,17.80
2019-05-10T19:52:37.715Z,17.70
2019-05-10T19:56:43.002Z,17.70
2019-05-10T20:00:47.845Z,17.60
2019-05-10T20:04:52.780Z,17.60
2019-05-10T20:08:57.640Z,17.50
2019-05-10T20:13:02.445Z,17.60
2019-05-10T20:17:07.284Z,17.50
2019-05-10T20:21:13.378Z,17.50
2019-05-10T20:25:18.629Z,17.50
2019-05-10T20:29:23.509Z,17.50
2019-05-10T20:33:28.557Z,17.60
2019-05-10T20:37:33.360Z,17.70
2019-05-10T20:41:38.113Z,17.70
2019-05-10T20:45:44.125Z,17.30
2019-05-10T20:49:49.099Z,17.20
2019-05-10T20:53:54.029Z,17.00
2019-05-10T20:57:58.760Z,16.90
2019-05-10T21:02:03.512Z,16.60
2019-05-10T21:06:08.450Z,16.50
2019-05-10T21:10:13.912Z,16.40
2019-05-10T21:14:18.805Z,16.50
2019-05-10T21:18:24.781Z,16.20
2019-05-10T21:22:29.520Z,16.30
2019-05-10T21:26:34.471Z,16.50
2019-05-10T21:30:39.300Z,16.60
2019-05-10T21:34:44.284Z,16.80
2019-05-10T21:38:49.005Z,16.90
2019-05-10T21:42:53.764Z,16.90
2019-05-10T21:46:58.625Z,16.90
2019-05-10T21:51:03.413Z,16.80
2019-05-10T21:55:08.509Z,16.80
2019-05-10T21:59:13.429Z,16.80
2019-05-10T22:03:18.297Z,16.80
2019-05-10T22:07:23.239Z,16.80
2019-05-10T22:11:28.081Z,16.70
2019-05-10T22:15:32.975Z,16.70
2019-05-10T22:19:37.816Z,16.60
2019-05-10T22:23:42.772Z,16.60
2019-05-10T22:27:47.608Z,16.60
2019-05-10T22:31:52.528Z,16.50
2019-05-10T22:35:57.399Z,16.50
2019-05-10T22:40:02.328Z,16.50
2019-05-10T22:44:08.484Z,16.40
2019-05-10T22:48:13.320Z,16.40
2019-05-10T22:52:18.097Z,16.20
2019-05-10T22:56:23.203Z,16.40
2019-05-10T23:00:28.346Z,16.00
2019-05-10T23:04:33.233Z,15.80
2019-05-10T23:08:38.005Z,15.80
2019-05-10T23:12:42.772Z,15.90
2019-05-10T23:16:47.755Z,15.70
2019-05-10T23:20:52.491Z,15.50
2019-05-10T23:24:57.452Z,15.60
2019-05-10T23:29:02.368Z,15.80
2019-05-10T23:33:07.284Z,15.80
2019-05-10T23:37:12.181Z,15.80
2019-05-10T23:41:17.032Z,15.60
2019-05-10T23:45:21.871Z,15.50
2019-05-10T23:49:26.740Z,15.40
2019-05-10T23:53:31.604Z,15.30
2019-05-10T23:57:36.377Z,15.30
